CPT950 PHNY-PHNL
Flight info
| Callsign | CPT950 |
|---|---|
| Flight time | 0h 26m |
| Altitude | 8000 |
| Route | LNY JULLE5 |
| Aircraft | C208/L-SDFGR/C |
Departure
| Time | 2026-04-26 03:57 |
|---|---|
| Airport | Lanai Airport (PHNY) |
Arrival
| Time | 2026-04-26 04:23 |
|---|---|
| Airport | Daniel K. Inouye International Airport (PHNL) |
| Time | Latitude | Longitude | Altitude | Speed | Heading |
|---|---|---|---|---|---|
| 2026-04-26 03:34 | 20.78984 | -156.94971 | 1307 ft | 0 kts | 13° |
| 2026-04-26 03:53 | 20.78987 | -156.94970 | 1307 ft | 2 kts | 14° |
| 2026-04-26 03:53 | 20.78994 | -156.94945 | 1307 ft | 8 kts | 128° |
| 2026-04-26 03:53 | 20.78929 | -156.94914 | 1307 ft | 13 kts | 188° |
| 2026-04-26 03:53 | 20.78831 | -156.94863 | 1305 ft | 19 kts | 207° |
| 2026-04-26 03:54 | 20.78712 | -156.94979 | 1308 ft | 28 kts | 223° |
| 2026-04-26 03:54 | 20.78547 | -156.95151 | 1311 ft | 38 kts | 225° |
| 2026-04-26 03:54 | 20.78332 | -156.95372 | 1311 ft | 47 kts | 224° |
| 2026-04-26 03:54 | 20.78112 | -156.95598 | 1311 ft | 20 kts | 225° |
| 2026-04-26 03:55 | 20.78085 | -156.95628 | 1312 ft | 8 kts | 61° |
| 2026-04-26 03:55 | 20.78102 | -156.95610 | 1311 ft | 0 kts | 45° |
| 2026-04-26 03:56 | 20.78204 | -156.95505 | 1312 ft | 45 kts | 44° |
| 2026-04-26 03:56 | 20.78524 | -156.95177 | 1383 ft | 73 kts | 41° |
| 2026-04-26 03:56 | 20.78893 | -156.94802 | 1627 ft | 76 kts | 39° |
| 2026-04-26 03:56 | 20.79293 | -156.94383 | 1852 ft | 88 kts | 42° |
| 2026-04-26 03:57 | 20.79812 | -156.94153 | 2133 ft | 89 kts | 330° |
| 2026-04-26 03:57 | 20.80061 | -156.94736 | 2377 ft | 88 kts | 286° |
| 2026-04-26 03:57 | 20.80213 | -156.95368 | 2605 ft | 87 kts | 284° |
| 2026-04-26 03:57 | 20.80352 | -156.96043 | 2708 ft | 103 kts | 286° |
| 2026-04-26 03:58 | 20.80465 | -156.96577 | 2763 ft | 117 kts | 285° |
| 2026-04-26 03:58 | 20.80660 | -156.97496 | 2858 ft | 136 kts | 285° |
| 2026-04-26 03:58 | 20.80875 | -156.98514 | 3067 ft | 140 kts | 284° |
| 2026-04-26 03:58 | 20.81077 | -156.99529 | 3336 ft | 139 kts | 284° |
| 2026-04-26 03:59 | 20.81279 | -157.00531 | 3580 ft | 139 kts | 284° |
| 2026-04-26 03:59 | 20.81487 | -157.01544 | 3833 ft | 140 kts | 284° |
| 2026-04-26 03:59 | 20.81702 | -157.02563 | 4084 ft | 141 kts | 284° |
| 2026-04-26 03:59 | 20.81921 | -157.03590 | 4333 ft | 142 kts | 284° |
| 2026-04-26 04:00 | 20.82145 | -157.04633 | 4578 ft | 144 kts | 284° |
| 2026-04-26 04:00 | 20.82372 | -157.05681 | 4827 ft | 145 kts | 284° |
| 2026-04-26 04:00 | 20.82603 | -157.06732 | 5068 ft | 146 kts | 284° |
| 2026-04-26 04:00 | 20.82859 | -157.07769 | 5304 ft | 146 kts | 287° |
| 2026-04-26 04:01 | 20.83138 | -157.08816 | 5570 ft | 147 kts | 286° |
| 2026-04-26 04:01 | 20.83417 | -157.09868 | 5806 ft | 147 kts | 286° |
| 2026-04-26 04:01 | 20.83695 | -157.10920 | 6048 ft | 148 kts | 286° |
| 2026-04-26 04:01 | 20.83976 | -157.11980 | 6296 ft | 148 kts | 285° |
| 2026-04-26 04:02 | 20.84256 | -157.13041 | 6538 ft | 148 kts | 285° |
| 2026-04-26 04:02 | 20.84538 | -157.14103 | 6767 ft | 148 kts | 285° |
| 2026-04-26 04:02 | 20.84813 | -157.15146 | 6994 ft | 148 kts | 285° |
| 2026-04-26 04:02 | 20.85090 | -157.16201 | 7226 ft | 147 kts | 286° |
| 2026-04-26 04:03 | 20.85368 | -157.17254 | 7460 ft | 147 kts | 286° |
| 2026-04-26 04:03 | 20.85646 | -157.18305 | 7689 ft | 146 kts | 286° |
| 2026-04-26 04:03 | 20.85921 | -157.19353 | 7926 ft | 146 kts | 286° |
| 2026-04-26 04:03 | 20.86210 | -157.20436 | 7989 ft | 159 kts | 286° |
| 2026-04-26 04:04 | 20.86524 | -157.21614 | 7996 ft | 170 kts | 286° |
| 2026-04-26 04:04 | 20.86852 | -157.22860 | 7992 ft | 178 kts | 287° |
| 2026-04-26 04:04 | 20.87192 | -157.24153 | 7989 ft | 183 kts | 287° |
| 2026-04-26 04:04 | 20.87536 | -157.25459 | 7989 ft | 186 kts | 287° |
| 2026-04-26 04:05 | 20.87891 | -157.26800 | 7982 ft | 187 kts | 286° |
| 2026-04-26 04:05 | 20.88243 | -157.28139 | 7979 ft | 186 kts | 286° |
| 2026-04-26 04:05 | 20.88595 | -157.29472 | 7976 ft | 186 kts | 287° |
| 2026-04-26 04:05 | 20.88946 | -157.30811 | 7972 ft | 187 kts | 286° |
| 2026-04-26 04:06 | 20.89296 | -157.32148 | 7970 ft | 187 kts | 286° |
| 2026-04-26 04:06 | 20.89649 | -157.33481 | 7969 ft | 186 kts | 286° |
| 2026-04-26 04:06 | 20.90000 | -157.34814 | 7970 ft | 186 kts | 286° |
| 2026-04-26 04:06 | 20.90345 | -157.36131 | 7969 ft | 186 kts | 286° |
| 2026-04-26 04:07 | 20.90695 | -157.37467 | 7969 ft | 186 kts | 286° |
| 2026-04-26 04:07 | 20.91045 | -157.38799 | 7969 ft | 186 kts | 286° |
| 2026-04-26 04:07 | 20.91394 | -157.40130 | 7968 ft | 186 kts | 287° |
| 2026-04-26 04:07 | 20.91744 | -157.41468 | 7965 ft | 187 kts | 287° |
| 2026-04-26 04:08 | 20.92103 | -157.42812 | 7966 ft | 188 kts | 287° |
| 2026-04-26 04:08 | 20.92456 | -157.44162 | 7967 ft | 189 kts | 287° |
| 2026-04-26 04:08 | 20.92808 | -157.45520 | 7969 ft | 189 kts | 286° |
| 2026-04-26 04:08 | 20.93159 | -157.46869 | 7968 ft | 188 kts | 287° |
| 2026-04-26 04:09 | 20.93515 | -157.48217 | 7967 ft | 188 kts | 286° |
| 2026-04-26 04:09 | 20.93868 | -157.49567 | 7966 ft | 187 kts | 286° |
| 2026-04-26 04:09 | 20.94213 | -157.50896 | 7962 ft | 188 kts | 287° |
| 2026-04-26 04:09 | 20.94563 | -157.52251 | 7961 ft | 188 kts | 286° |
| 2026-04-26 04:10 | 20.94917 | -157.53604 | 7962 ft | 188 kts | 287° |
| 2026-04-26 04:10 | 20.95275 | -157.54957 | 7959 ft | 190 kts | 287° |
| 2026-04-26 04:10 | 20.95628 | -157.56304 | 7958 ft | 191 kts | 288° |
| 2026-04-26 04:10 | 20.95988 | -157.57675 | 7957 ft | 191 kts | 288° |
| 2026-04-26 04:11 | 20.96424 | -157.59018 | 7958 ft | 191 kts | 291° |
| 2026-04-26 04:11 | 20.96853 | -157.60370 | 7958 ft | 192 kts | 290° |
| 2026-04-26 04:11 | 20.97282 | -157.61723 | 7959 ft | 191 kts | 290° |
| 2026-04-26 04:11 | 20.97703 | -157.63049 | 7959 ft | 190 kts | 290° |
| 2026-04-26 04:12 | 20.98130 | -157.64386 | 7960 ft | 189 kts | 290° |
| 2026-04-26 04:12 | 20.98555 | -157.65719 | 7959 ft | 189 kts | 290° |
| 2026-04-26 04:12 | 20.98978 | -157.67051 | 7938 ft | 190 kts | 290° |
| 2026-04-26 04:12 | 20.99419 | -157.68436 | 7696 ft | 201 kts | 290° |
| 2026-04-26 04:13 | 20.99881 | -157.69876 | 7461 ft | 207 kts | 290° |
| 2026-04-26 04:13 | 21.00337 | -157.71328 | 7298 ft | 204 kts | 290° |
| 2026-04-26 04:13 | 21.00792 | -157.72741 | 7157 ft | 199 kts | 290° |
| 2026-04-26 04:13 | 21.01236 | -157.74136 | 7012 ft | 197 kts | 290° |
| 2026-04-26 04:14 | 21.01678 | -157.75526 | 6865 ft | 196 kts | 290° |
| 2026-04-26 04:14 | 21.02120 | -157.76913 | 6722 ft | 198 kts | 290° |
| 2026-04-26 04:14 | 21.02564 | -157.78306 | 6583 ft | 197 kts | 290° |
| 2026-04-26 04:14 | 21.03004 | -157.79694 | 6442 ft | 196 kts | 290° |
| 2026-04-26 04:15 | 21.03437 | -157.81070 | 6296 ft | 198 kts | 291° |
| 2026-04-26 04:15 | 21.03892 | -157.82473 | 6145 ft | 199 kts | 291° |
| 2026-04-26 04:15 | 21.04338 | -157.83880 | 5997 ft | 198 kts | 290° |
| 2026-04-26 04:15 | 21.04775 | -157.85271 | 5850 ft | 197 kts | 290° |
| 2026-04-26 04:16 | 21.05217 | -157.86662 | 5705 ft | 198 kts | 291° |
| 2026-04-26 04:16 | 21.05663 | -157.88070 | 5553 ft | 202 kts | 291° |
| 2026-04-26 04:16 | 21.06186 | -157.89461 | 5345 ft | 202 kts | 306° |
| 2026-04-26 04:16 | 21.07208 | -157.90383 | 5039 ft | 188 kts | 340° |
| 2026-04-26 04:17 | 21.08413 | -157.90845 | 4755 ft | 185 kts | 345° |
| 2026-04-26 04:17 | 21.09635 | -157.91255 | 4462 ft | 183 kts | 349° |
| 2026-04-26 04:17 | 21.10846 | -157.91677 | 4168 ft | 182 kts | 346° |
| 2026-04-26 04:17 | 21.12040 | -157.92114 | 3874 ft | 181 kts | 347° |
| 2026-04-26 04:18 | 21.13221 | -157.92552 | 3579 ft | 178 kts | 346° |
| 2026-04-26 04:18 | 21.14387 | -157.92962 | 3292 ft | 175 kts | 347° |
| 2026-04-26 04:18 | 21.15548 | -157.93379 | 2996 ft | 174 kts | 347° |
| 2026-04-26 04:18 | 21.16668 | -157.93781 | 2740 ft | 171 kts | 347° |
| 2026-04-26 04:19 | 21.17789 | -157.94190 | 2488 ft | 168 kts | 348° |
| 2026-04-26 04:19 | 21.18882 | -157.94600 | 2242 ft | 165 kts | 347° |
| 2026-04-26 04:19 | 21.19951 | -157.95019 | 2029 ft | 162 kts | 347° |
| 2026-04-26 04:19 | 21.20988 | -157.95407 | 2020 ft | 153 kts | 348° |
| 2026-04-26 04:20 | 21.22002 | -157.95535 | 2004 ft | 144 kts | 6° |
| 2026-04-26 04:20 | 21.23021 | -157.95511 | 1870 ft | 147 kts | 6° |
| 2026-04-26 04:20 | 21.24037 | -157.95488 | 1742 ft | 148 kts | 7° |
| 2026-04-26 04:20 | 21.25072 | -157.95457 | 1616 ft | 149 kts | 6° |
| 2026-04-26 04:21 | 21.26096 | -157.95427 | 1494 ft | 146 kts | 6° |
| 2026-04-26 04:21 | 21.27056 | -157.95389 | 1240 ft | 129 kts | 7° |
| 2026-04-26 04:21 | 21.27943 | -157.95331 | 1022 ft | 127 kts | 6° |
| 2026-04-26 04:21 | 21.28801 | -157.95264 | 970 ft | 121 kts | 8° |
| 2026-04-26 04:22 | 21.29630 | -157.95103 | 739 ft | 119 kts | 39° |
| 2026-04-26 04:22 | 21.30135 | -157.94499 | 571 ft | 102 kts | 50° |
| 2026-04-26 04:22 | 21.30483 | -157.93995 | 417 ft | 70 kts | 49° |
| 2026-04-26 04:22 | 21.30773 | -157.93595 | 323 ft | 64 kts | 51° |
| 2026-04-26 04:23 | 21.31064 | -157.93187 | 226 ft | 70 kts | 52° |
| 2026-04-26 04:23 | 21.31340 | -157.92788 | 120 ft | 63 kts | 50° |
| 2026-04-26 04:23 | 21.31603 | -157.92417 | 30 ft | 59 kts | 50° |
| 2026-04-26 04:23 | 21.31811 | -157.92124 | 23 ft | 33 kts | 53° |
| 2026-04-26 04:24 | 21.31914 | -157.91977 | 23 ft | 23 kts | 52° |
| 2026-04-26 04:24 | 21.31929 | -157.91869 | 23 ft | 11 kts | 143° |
| 2026-04-26 04:24 | 21.31856 | -157.91825 | 23 ft | 0 kts | 152° |
| 2026-04-26 04:25 | 21.31826 | -157.91823 | 23 ft | 13 kts | 188° |
| 2026-04-26 04:25 | 21.31748 | -157.91870 | 23 ft | 13 kts | 159° |
| 2026-04-26 04:25 | 21.31692 | -157.91829 | 25 ft | 7 kts | 141° |
| 2026-04-26 04:26 | 21.31691 | -157.91812 | 25 ft | 3 kts | 54° |
| 2026-04-26 04:26 | 21.31694 | -157.91808 | 24 ft | 0 kts | 53° |